Time;durP1;ratioP1;P1;durP2;ratioP2;P2;SDS_P1;SDS_P2;PMS_P1;PMS_P2;Temp;Humidity;BMP_temperature;BMP_pressure;BME280_temperature;BME280_humidity;BME280_pressure;Samples;Min_cycle;Max_cycle;Signal;HPM_P1;HPM_P2
2023/10/13 00:02:04;;;;;;;5.72;3.90;;;;;;;;;;5020664;28;20021;-63
2023/10/13 00:04:35;;;;;;;7.63;4.43;;;;;;;;;;5020756;28;20048;-63
2023/10/13 00:07:02;;;;;;;6.00;3.80;;;;;;;;;;5015369;28;20436;-63
2023/10/13 00:09:37;;;;;;;4.88;3.20;;;;;;;;;;5012122;28;20022;-63
2023/10/13 00:12:14;;;;;;;6.95;3.70;;;;;;;;;;5020908;28;20037;-63
2023/10/13 00:14:41;;;;;;;5.25;3.58;;;;;;;;;;5018544;28;20556;-63
2023/10/13 00:17:08;;;;;;;6.30;4.00;;;;;;;;;;5017483;28;20033;-63
2023/10/13 00:19:45;;;;;;;9.60;4.45;;;;;;;;;;5019012;28;20473;-63
2023/10/13 00:22:12;;;;;;;7.75;4.35;;;;;;;;;;5015121;28;20045;-63
2023/10/13 00:24:51;;;;;;;7.35;4.32;;;;;;;;;;5015962;28;20605;-66
2023/10/13 00:30:14;;;;;;;9.50;3.08;;;;;;;;;;5017758;28;20449;-66
2023/10/13 00:32:42;;;;;;;6.80;3.78;;;;;;;;;;5024585;28;20026;-66
2023/10/13 00:35:12;;;;;;;5.75;3.50;;;;;;;;;;5019511;28;20037;-66
2023/10/13 00:37:44;;;;;;;4.93;3.10;;;;;;;;;;5022482;28;20030;-66
2023/10/13 00:40:40;;;;;;;5.95;3.53;;;;;;;;;;5023218;28;20386;-67
2023/10/13 00:43:28;;;;;;;6.88;3.63;;;;;;;;;;5019661;28;20033;-66
2023/10/13 00:45:43;;;;;;;10.30;4.25;;;;;;;;;;5019477;28;20073;-65
2023/10/13 00:48:14;;;;;;;7.20;3.70;;;;;;;;;;5022569;28;20028;-63
2023/10/13 00:50:41;;;;;;;6.95;3.63;;;;;;;;;;5023637;28;20071;-63
2023/10/13 00:53:08;;;;;;;10.27;4.18;;;;;;;;;;5021826;28;20461;-63
2023/10/13 00:55:34;;;;;;;8.77;3.70;;;;;;;;;;5020792;28;20029;-66
2023/10/13 00:58:03;;;;;;;4.95;3.75;;;;;;;;;;5019749;28;20025;-67
2023/10/13 01:00:46;;;;;;;7.40;3.80;;;;;;;;;;5010003;28;20045;-67
2023/10/13 01:03:12;;;;;;;6.70;3.38;;;;;;;;;;5021660;28;20032;-66
2023/10/13 01:05:39;;;;;;;7.57;4.38;;;;;;;;;;5018394;28;20030;-66
2023/10/13 01:08:10;;;;;;;6.63;4.10;;;;;;;;;;5023980;28;20029;-66
2023/10/13 01:10:37;;;;;;;10.55;3.88;;;;;;;;;;5023703;28;20033;-67
2023/10/13 01:13:04;;;;;;;5.53;3.80;;;;;;;;;;5015786;28;20025;-66
2023/10/13 01:15:33;;;;;;;9.70;3.95;;;;;;;;;;5016289;28;20656;-67
2023/10/13 01:18:13;;;;;;;6.20;3.85;;;;;;;;;;5019757;28;20025;-66
2023/10/13 01:20:52;;;;;;;7.60;3.78;;;;;;;;;;5012863;28;20033;-67
2023/10/13 01:23:18;;;;;;;6.25;3.83;;;;;;;;;;5036023;28;20037;-67
2023/10/13 01:25:45;;;;;;;5.82;3.95;;;;;;;;;;5013856;28;20526;-67
2023/10/13 01:28:15;;;;;;;7.10;3.95;;;;;;;;;;5020564;28;20082;-67
2023/10/13 01:30:42;;;;;;;6.25;4.07;;;;;;;;;;5013236;28;20029;-66
2023/10/13 01:33:10;;;;;;;12.35;6.60;;;;;;;;;;5014499;28;20595;-68
2023/10/13 01:35:42;;;;;;;5.60;3.47;;;;;;;;;;5009686;28;20525;-67
2023/10/13 01:38:08;;;;;;;5.75;3.72;;;;;;;;;;5016301;28;20485;-67
2023/10/13 01:40:35;;;;;;;9.35;4.97;;;;;;;;;;5021874;28;20140;-66
2023/10/13 01:43:04;;;;;;;8.82;4.20;;;;;;;;;;5015613;28;20109;-67
2023/10/13 01:45:30;;;;;;;6.35;4.00;;;;;;;;;;5021147;28;20041;-67
2023/10/13 01:47:56;;;;;;;6.20;3.92;;;;;;;;;;5021749;28;20044;-66
2023/10/13 01:50:30;;;;;;;7.32;4.53;;;;;;;;;;5016130;28;20100;-66
2023/10/13 01:53:17;;;;;;;6.80;4.15;;;;;;;;;;5022355;28;20025;-66
2023/10/13 01:55:44;;;;;;;7.15;4.68;;;;;;;;;;5019119;28;20033;-64
2023/10/13 01:58:16;;;;;;;6.57;4.20;;;;;;;;;;5018584;28;20033;-65
2023/10/13 02:00:43;;;;;;;8.00;4.50;;;;;;;;;;5019468;28;20499;-64
2023/10/13 02:03:16;;;;;;;6.82;4.50;;;;;;;;;;5016599;28;20440;-64
2023/10/13 02:05:47;;;;;;;8.40;4.88;;;;;;;;;;5016060;28;20033;-64
2023/10/13 02:08:26;;;;;;;7.07;4.45;;;;;;;;;;5017019;28;20057;-64
2023/10/13 02:10:53;;;;;;;7.88;4.97;;;;;;;;;;5020913;28;20033;-63
2023/10/13 02:13:22;;;;;;;8.02;4.63;;;;;;;;;;5020554;28;20022;-63
2023/10/13 02:15:48;;;;;;;10.57;4.90;;;;;;;;;;5035619;28;20041;-64
2023/10/13 02:18:20;;;;;;;7.28;4.22;;;;;;;;;;5023497;28;20037;-64
2023/10/13 02:20:54;;;;;;;7.32;5.05;;;;;;;;;;5017469;28;20516;-64
2023/10/13 02:23:21;;;;;;;11.50;5.13;;;;;;;;;;5011590;28;20033;-64
2023/10/13 02:25:47;;;;;;;8.30;4.47;;;;;;;;;;5017050;28;20028;-64
2023/10/13 02:28:13;;;;;;;6.05;4.68;;;;;;;;;;5020687;28;20033;-64
2023/10/13 02:30:48;;;;;;;7.30;5.03;;;;;;;;;;5016407;28;20040;-64
2023/10/13 02:33:20;;;;;;;8.23;4.88;;;;;;;;;;5014468;28;20029;-64
2023/10/13 02:35:56;;;;;;;11.52;5.45;;;;;;;;;;5019561;28;20043;-63
2023/10/13 02:38:34;;;;;;;;;;;;;;;;;;5025059;28;20038;-65
2023/10/13 02:41:11;;;;;;;10.02;5.65;;;;;;;;;;5021393;28;20012;-63
2023/10/13 02:43:37;;;;;;;10.32;5.28;;;;;;;;;;5023692;28;20477;-64
2023/10/13 02:46:04;;;;;;;10.65;5.32;;;;;;;;;;5015654;28;20129;-64
2023/10/13 02:48:45;;;;;;;9.60;4.72;;;;;;;;;;5022061;28;20749;-66
2023/10/13 02:51:18;;;;;;;8.20;5.45;;;;;;;;;;5041041;28;20061;-64
2023/10/13 02:53:48;;;;;;;8.48;5.95;;;;;;;;;;5018631;28;20029;-66
2023/10/13 02:56:20;;;;;;;11.32;5.25;;;;;;;;;;5017938;28;20194;-66
2023/10/13 02:58:53;;;;;;;8.82;5.25;;;;;;;;;;5020988;28;20056;-66
2023/10/13 03:01:20;;;;;;;10.07;5.43;;;;;;;;;;5012154;28;20104;-66
2023/10/13 03:03:53;;;;;;;10.13;5.38;;;;;;;;;;5019169;28;20065;-66
2023/10/13 03:06:23;;;;;;;8.88;5.35;;;;;;;;;;5014325;28;20069;-66
2023/10/13 03:08:49;;;;;;;12.15;5.57;;;;;;;;;;5012940;28;20026;-66
2023/10/13 03:11:21;;;;;;;9.88;6.50;;;;;;;;;;5018545;28;20083;-66
2023/10/13 03:13:48;;;;;;;9.93;5.57;;;;;;;;;;5011376;28;20025;-68
2023/10/13 03:16:19;;;;;;;6.50;5.22;;;;;;;;;;5017452;28;20128;-66
2023/10/13 03:18:53;;;;;;;8.35;5.55;;;;;;;;;;5021218;28;20493;-66
2023/10/13 03:21:29;;;;;;;9.47;5.07;;;;;;;;;;5013629;28;20124;-63
2023/10/13 03:23:56;;;;;;;8.18;5.28;;;;;;;;;;5017148;28;20595;-64
2023/10/13 03:26:22;;;;;;;8.93;5.18;;;;;;;;;;5022759;28;20029;-64
2023/10/13 03:28:52;;;;;;;9.15;5.30;;;;;;;;;;5019551;28;20028;-64
2023/10/13 03:31:27;;;;;;;9.75;5.70;;;;;;;;;;5021222;28;20128;-64
2023/10/13 03:33:59;;;;;;;10.82;6.53;;;;;;;;;;5036956;28;20029;-64
2023/10/13 03:36:56;;;;;;;14.82;7.88;;;;;;;;;;5018850;28;20393;-64
2023/10/13 03:39:27;;;;;;;13.13;8.23;;;;;;;;;;5016542;28;20057;-64
2023/10/13 03:41:53;;;;;;;13.55;8.57;;;;;;;;;;5020631;28;20137;-64
2023/10/13 03:44:20;;;;;;;13.70;9.77;;;;;;;;;;5020461;28;20028;-64
2023/10/13 03:46:51;;;;;;;16.48;10.02;;;;;;;;;;5017174;28;20160;-64
2023/10/13 03:49:21;;;;;;;14.82;9.90;;;;;;;;;;5020086;28;20034;-64
2023/10/13 03:51:54;;;;;;;17.50;10.52;;;;;;;;;;5018279;28;20030;-64
2023/10/13 03:54:20;;;;;;;15.55;9.73;;;;;;;;;;5016743;28;20043;-64
2023/10/13 03:56:52;;;;;;;17.95;10.73;;;;;;;;;;5021411;28;20184;-63
2023/10/13 03:59:18;;;;;;;17.90;9.82;;;;;;;;;;5011158;28;20117;-63
2023/10/13 04:01:46;;;;;;;16.08;10.15;;;;;;;;;;5020005;28;20025;-64
2023/10/13 04:04:29;;;;;;;18.52;11.15;;;;;;;;;;5018839;28;20042;-64
2023/10/13 04:17:25;;;;;;;16.13;9.52;;;;;;;;;;5023161;28;20044;-66
2023/10/13 04:39:00;;;;;;;4.57;3.20;;;;;;;;;;5019901;28;20484;-64
2023/10/13 04:41:41;;;;;;;3.45;2.53;;;;;;;;;;5015259;28;20060;-66
2023/10/13 04:47:07;;;;;;;3.72;2.45;;;;;;;;;;5016177;28;20103;-66
2023/10/13 04:52:12;;;;;;;3.67;2.72;;;;;;;;;;5024404;28;20281;-65
2023/10/13 04:57:25;;;;;;;4.15;2.75;;;;;;;;;;5017072;28;20026;-65
2023/10/13 05:05:45;;;;;;;2.92;2.17;;;;;;;;;;5018823;28;20034;-65
2023/10/13 05:47:46;;;;;;;3.92;2.40;;;;;;;;;;5017858;28;20556;-65
2023/10/13 05:50:12;;;;;;;2.67;2.10;;;;;;;;;;5016548;28;20545;-65
2023/10/13 06:31:07;;;;;;;4.68;2.42;;;;;;;;;;5020623;28;20044;-66
2023/10/13 06:33:34;;;;;;;6.95;3.03;;;;;;;;;;5019966;28;20036;-65
2023/10/13 06:36:09;;;;;;;2.63;2.17;;;;;;;;;;5022603;28;20033;-65
2023/10/13 06:38:36;;;;;;;3.38;2.50;;;;;;;;;;5020833;28;20026;-67
2023/10/13 06:41:05;;;;;;;2.25;2.05;;;;;;;;;;5015689;28;20038;-65
2023/10/13 06:43:43;;;;;;;5.55;2.28;;;;;;;;;;5004833;28;20060;-66
2023/10/13 06:46:16;;;;;;;3.22;2.38;;;;;;;;;;5019448;28;20107;-66
2023/10/13 06:48:43;;;;;;;4.38;2.40;;;;;;;;;;5019680;28;20037;-65
2023/10/13 06:51:21;;;;;;;6.32;2.70;;;;;;;;;;5019840;28;20026;-65
2023/10/13 06:53:48;;;;;;;4.30;2.60;;;;;;;;;;5021301;28;20065;-66
2023/10/13 06:56:29;;;;;;;5.28;2.42;;;;;;;;;;5019617;28;20030;-64
2023/10/13 06:58:59;;;;;;;3.78;2.80;;;;;;;;;;5017737;28;20125;-65
2023/10/13 07:01:28;;;;;;;3.97;3.00;;;;;;;;;;5022476;28;20397;-64
2023/10/13 07:04:00;;;;;;;7.63;2.63;;;;;;;;;;5025697;28;20112;-66
2023/10/13 07:06:27;;;;;;;3.92;2.30;;;;;;;;;;5019972;28;20022;-64
2023/10/13 07:08:53;;;;;;;3.83;2.70;;;;;;;;;;5017942;28;20138;-65
2023/10/13 07:11:33;;;;;;;7.43;2.83;;;;;;;;;;5016753;28;20033;-64
2023/10/13 07:14:10;;;;;;;3.40;2.33;;;;;;;;;;5014435;28;20535;-64
2023/10/13 07:16:46;;;;;;;4.47;2.30;;;;;;;;;;5015364;28;20029;-64
2023/10/13 07:19:17;;;;;;;5.97;2.20;;;;;;;;;;5026268;28;20033;-64
2023/10/13 07:21:45;;;;;;;3.80;2.20;;;;;;;;;;5020915;28;20034;-64
2023/10/13 07:24:15;;;;;;;4.50;2.10;;;;;;;;;;5014935;28;20115;-65
2023/10/13 07:26:46;;;;;;;5.60;2.55;;;;;;;;;;5014328;28;20025;-64
2023/10/13 07:29:14;;;;;;;4.22;2.30;;;;;;;;;;5019137;28;20072;-64
2023/10/13 07:31:41;;;;;;;7.30;2.10;;;;;;;;;;5013775;28;20075;-64
2023/10/13 07:34:24;;;;;;;5.07;2.00;;;;;;;;;;5012678;28;20029;-65
2023/10/13 07:36:52;;;;;;;3.00;2.40;;;;;;;;;;5016729;28;20044;-65
2023/10/13 07:39:23;;;;;;;6.65;2.00;;;;;;;;;;5017165;28;20108;-64
2023/10/13 07:42:03;;;;;;;4.00;2.00;;;;;;;;;;5018907;28;20497;-64
2023/10/13 07:44:33;;;;;;;5.07;2.35;;;;;;;;;;5022034;28;20065;-64
2023/10/13 07:46:59;;;;;;;5.63;2.40;;;;;;;;;;5016538;28;20073;-64
2023/10/13 07:49:36;;;;;;;4.40;1.90;;;;;;;;;;5013000;28;20083;-65
2023/10/13 07:57:33;;;;;;;;;;;;;;;;;;5011938;28;20490;-63
2023/10/13 08:00:25;;;;;;;3.55;2.58;;;;;;;;;;5014430;28;19971;-63
2023/10/13 08:03:07;;;;;;;4.40;1.98;;;;;;;;;;5019004;28;20466;-62
2023/10/13 08:05:42;;;;;;;4.88;2.40;;;;;;;;;;5020213;28;20033;-68
2023/10/13 08:08:14;;;;;;;3.00;2.30;;;;;;;;;;5021808;28;20545;-63
2023/10/13 08:10:45;;;;;;;5.38;2.17;;;;;;;;;;5019018;28;20486;-63
2023/10/13 08:13:12;;;;;;;2.78;2.05;;;;;;;;;;5020290;28;20786;-62
2023/10/13 08:15:47;;;;;;;5.35;1.90;;;;;;;;;;5019779;28;20076;-63
2023/10/13 08:18:35;;;;;;;9.88;2.40;;;;;;;;;;5020940;28;20125;-63
2023/10/13 08:21:06;;;;;;;6.30;2.30;;;;;;;;;;5020462;28;20160;-63
2023/10/13 08:24:15;;;;;;;2.65;2.10;;;;;;;;;;5033937;28;20076;-64
2023/10/13 08:45:54;;;;;;;8.70;2.58;;;;;;;;;;5020973;28;20132;-65
2023/10/13 08:48:08;;;;;;;2.83;2.35;;;;;;;;;;5018211;28;20033;-66
2023/10/13 08:56:08;;;;;;;4.30;2.53;;;;;;;;;;5019533;28;20069;-65
2023/10/13 09:09:35;;;;;;;4.03;2.30;;;;;;;;;;5016505;28;20038;-62
2023/10/13 09:12:11;;;;;;;4.60;2.20;;;;;;;;;;5021567;28;20029;-63
2023/10/13 09:14:39;;;;;;;3.58;2.45;;;;;;;;;;5029723;28;20140;-63
2023/10/13 09:17:10;;;;;;;6.95;2.60;;;;;;;;;;5021856;28;20095;-64
2023/10/13 09:19:55;;;;;;;3.15;2.30;;;;;;;;;;5016761;28;20042;-63
2023/10/13 09:22:38;;;;;;;5.38;2.58;;;;;;;;;;5018559;28;20034;-65
2023/10/13 09:25:05;;;;;;;12.13;3.08;;;;;;;;;;5023647;28;20029;-65
2023/10/13 09:27:37;;;;;;;4.63;3.15;;;;;;;;;;5018969;28;20401;-65
2023/10/13 09:30:38;;;;;;;3.92;2.25;;;;;;;;;;5019645;28;20036;-65
2023/10/13 09:33:04;;;;;;;3.65;2.30;;;;;;;;;;5021899;28;20393;-64
2023/10/13 09:35:33;;;;;;;3.83;2.08;;;;;;;;;;5020752;28;20030;-64
2023/10/13 09:38:03;;;;;;;4.25;2.35;;;;;;;;;;5025094;28;20481;-64
2023/10/13 09:40:37;;;;;;;3.75;2.25;;;;;;;;;;5046042;28;20111;-62
2023/10/13 09:43:14;;;;;;;7.18;2.60;;;;;;;;;;5019176;28;20493;-63
2023/10/13 09:45:43;;;;;;;9.98;2.80;;;;;;;;;;5023149;28;20160;-67
2023/10/13 09:48:26;;;;;;;8.00;3.25;;;;;;;;;;5025693;28;20061;-65
2023/10/13 09:50:53;;;;;;;9.80;3.22;;;;;;;;;;5016544;28;20026;-63
2023/10/13 09:53:23;;;;;;;6.05;2.45;;;;;;;;;;5016534;28;20029;-63
2023/10/13 09:55:54;;;;;;;3.35;2.40;;;;;;;;;;5016580;28;20038;-64
2023/10/13 09:58:28;;;;;;;7.45;2.75;;;;;;;;;;5015650;28;20883;-64
2023/10/13 10:01:09;;;;;;;6.88;2.50;;;;;;;;;;5011923;28;20653;-64
2023/10/13 10:03:52;;;;;;;9.63;2.80;;;;;;;;;;5014644;28;20099;-64
2023/10/13 10:06:28;;;;;;;7.72;2.85;;;;;;;;;;5015789;28;20045;-64
2023/10/13 10:09:11;;;;;;;6.32;3.70;;;;;;;;;;5016869;28;20034;-63
2023/10/13 10:11:45;;;;;;;10.02;3.15;;;;;;;;;;5018094;28;20042;-69
2023/10/13 10:14:17;;;;;;;9.27;3.45;;;;;;;;;;5017974;28;20045;-69
2023/10/13 10:16:52;;;;;;;9.95;3.40;;;;;;;;;;5023834;28;20116;-69
2023/10/13 10:19:18;;;;;;;8.38;3.58;;;;;;;;;;5016636;28;20094;-64
2023/10/13 10:21:45;;;;;;;11.80;3.45;;;;;;;;;;5027282;28;20150;-63
2023/10/13 10:24:39;;;;;;;11.60;3.92;;;;;;;;;;5018621;28;20199;-64
2023/10/13 10:27:06;;;;;;;7.25;2.70;;;;;;;;;;5016843;28;20033;-63
2023/10/13 10:29:32;;;;;;;7.22;2.88;;;;;;;;;;5017565;28;20025;-63
2023/10/13 10:31:58;;;;;;;7.85;2.90;;;;;;;;;;5013544;28;20040;-62
2023/10/13 10:34:32;;;;;;;11.45;3.17;;;;;;;;;;5014534;28;20195;-62
2023/10/13 10:36:58;;;;;;;10.32;3.67;;;;;;;;;;5018652;28;20485;-62
2023/10/13 10:39:44;;;;;;;7.68;2.83;;;;;;;;;;5017528;28;20058;-62
2023/10/13 10:42:15;;;;;;;8.02;3.05;;;;;;;;;;5013205;28;20520;-62
2023/10/13 10:44:47;;;;;;;6.38;2.63;;;;;;;;;;5013485;28;20029;-62
2023/10/13 10:47:36;;;;;;;7.93;3.22;;;;;;;;;;5012062;28;20143;-63
2023/10/13 10:50:26;;;;;;;4.18;2.45;;;;;;;;;;5017097;28;20029;-63
2023/10/13 10:52:57;;;;;;;9.90;2.97;;;;;;;;;;5018713;28;20090;-62
2023/10/13 10:55:28;;;;;;;9.57;2.83;;;;;;;;;;5014262;28;20033;-64
2023/10/13 10:58:01;;;;;;;6.68;3.00;;;;;;;;;;5014159;28;20124;-62
2023/10/13 11:00:41;;;;;;;7.07;2.90;;;;;;;;;;5016618;28;20064;-64
2023/10/13 11:03:08;;;;;;;7.57;3.00;;;;;;;;;;5013723;28;20968;-62
2023/10/13 11:05:44;;;;;;;4.40;2.55;;;;;;;;;;5014918;28;20036;-65
2023/10/13 11:08:25;;;;;;;8.65;2.72;;;;;;;;;;5013185;28;20872;-62
2023/10/13 11:10:51;;;;;;;6.30;2.65;;;;;;;;;;5009531;28;20037;-65
2023/10/13 11:13:22;;;;;;;10.27;2.97;;;;;;;;;;5011474;28;20075;-63
2023/10/13 11:15:48;;;;;;;9.57;3.38;;;;;;;;;;5006889;28;20048;-62
2023/10/13 11:18:20;;;;;;;8.93;3.00;;;;;;;;;;5010233;28;20037;-63
2023/10/13 11:20:54;;;;;;;7.22;2.83;;;;;;;;;;5011760;28;20025;-63
2023/10/13 11:23:25;;;;;;;11.30;3.38;;;;;;;;;;5016638;28;20454;-63
2023/10/13 11:26:00;;;;;;;6.82;2.42;;;;;;;;;;5017216;28;20527;-64
2023/10/13 11:28:27;;;;;;;6.40;2.55;;;;;;;;;;5015431;28;20083;-63
2023/10/13 11:30:58;;;;;;;6.88;2.58;;;;;;;;;;5012770;28;20475;-63
2023/10/13 11:33:25;;;;;;;9.00;4.05;;;;;;;;;;5020418;28;20083;-63
2023/10/13 11:41:16;;;;;;;9.43;3.85;;;;;;;;;;5014960;28;20379;-63
2023/10/13 11:43:52;;;;;;;9.20;2.53;;;;;;;;;;5015543;28;20056;-63
2023/10/13 11:51:44;;;;;;;7.10;2.60;;;;;;;;;;5015201;28;20378;-63
2023/10/13 11:54:31;;;;;;;9.68;2.53;;;;;;;;;;5016579;28;20029;-64
2023/10/13 11:56:58;;;;;;;11.40;2.88;;;;;;;;;;5014784;28;20030;-63
2023/10/13 11:59:27;;;;;;;10.98;2.70;;;;;;;;;;5016791;28;20095;-63
2023/10/13 12:04:54;;;;;;;3.80;2.50;;;;;;;;;;5038125;28;20048;-63
2023/10/13 12:07:40;;;;;;;8.30;2.67;;;;;;;;;;5020829;28;20752;-63
2023/10/13 12:10:14;;;;;;;8.93;3.00;;;;;;;;;;5019648;28;20026;-63
2023/10/13 12:12:43;;;;;;;6.28;2.63;;;;;;;;;;5020562;28;20038;-63
2023/10/13 12:15:13;;;;;;;6.43;2.40;;;;;;;;;;5022828;28;20032;-64
2023/10/13 12:17:44;;;;;;;7.97;2.15;;;;;;;;;;5018351;28;20132;-63
2023/10/13 12:20:18;;;;;;;6.65;2.72;;;;;;;;;;5038775;28;20471;-69
2023/10/13 12:22:55;;;;;;;7.32;2.28;;;;;;;;;;5023104;28;20118;-69
2023/10/13 12:28:28;;;;;;;5.40;2.47;;;;;;;;;;5026302;28;20156;-64
2023/10/13 12:30:53;;;;;;;5.10;2.30;;;;;;;;;;5026193;28;20029;-63
2023/10/13 12:52:25;;;;;;;5.85;2.08;;;;;;;;;;5020068;28;20385;-64
2023/10/13 12:57:23;;;;;;;5.03;2.10;;;;;;;;;;5021227;28;20120;-64
2023/10/13 12:59:56;;;;;;;4.28;2.05;;;;;;;;;;5019833;28;20029;-67
2023/10/13 13:02:24;;;;;;;7.05;2.20;;;;;;;;;;5024184;28;20477;-69
2023/10/13 13:04:54;;;;;;;10.10;2.50;;;;;;;;;;5029077;28;20534;-69
2023/10/13 13:07:20;;;;;;;4.30;2.35;;;;;;;;;;5018108;28;20468;-69
2023/10/13 13:09:47;;;;;;;6.55;2.55;;;;;;;;;;5021717;28;20040;-68
2023/10/13 13:12:13;;;;;;;5.40;2.20;;;;;;;;;;5024136;28;20022;-68
2023/10/13 13:14:44;;;;;;;4.00;1.80;;;;;;;;;;5027118;28;20490;-69
2023/10/13 13:17:10;;;;;;;4.65;1.88;;;;;;;;;;5016515;28;20033;-68
2023/10/13 13:19:40;;;;;;;6.00;2.25;;;;;;;;;;5022307;28;20094;-68
2023/10/13 13:22:11;;;;;;;6.10;2.35;;;;;;;;;;5018207;28;20041;-69
2023/10/13 13:24:44;;;;;;;8.27;2.58;;;;;;;;;;5024051;28;20037;-69
2023/10/13 13:27:14;;;;;;;7.90;2.63;;;;;;;;;;5022335;28;20029;-69
2023/10/13 13:29:43;;;;;;;6.70;2.35;;;;;;;;;;5020298;28;20045;-68
2023/10/13 13:32:23;;;;;;;8.10;2.28;;;;;;;;;;5023390;28;20635;-63
2023/10/13 13:37:45;;;;;;;4.57;2.65;;;;;;;;;;5023206;28;20037;-63
2023/10/13 13:40:15;;;;;;;5.72;2.30;;;;;;;;;;5026427;28;20132;-63
2023/10/13 13:42:42;;;;;;;7.68;2.40;;;;;;;;;;5020868;28;20076;-64
2023/10/13 13:45:27;;;;;;;6.25;2.72;;;;;;;;;;5021029;28;20025;-64
2023/10/13 13:47:53;;;;;;;6.63;2.47;;;;;;;;;;5025826;28;20440;-61
2023/10/13 13:50:31;;;;;;;7.35;2.65;;;;;;;;;;5022414;28;20107;-62
2023/10/13 13:53:00;;;;;;;7.13;2.58;;;;;;;;;;5020471;28;20405;-61
2023/10/13 13:55:31;;;;;;;9.15;2.47;;;;;;;;;;5026060;28;20109;-67
2023/10/13 13:57:57;;;;;;;5.57;2.67;;;;;;;;;;5012962;28;20033;-69
2023/10/13 14:00:37;;;;;;;8.98;2.97;;;;;;;;;;5003667;28;20121;-68
2023/10/13 14:03:23;;;;;;;5.53;2.70;;;;;;;;;;5015729;28;20049;-64
2023/10/13 14:05:50;;;;;;;5.70;2.83;;;;;;;;;;5033023;28;20065;-62
2023/10/13 14:08:16;;;;;;;7.90;2.35;;;;;;;;;;5027717;28;20029;-62
2023/10/13 14:16:16;;;;;;;4.78;2.25;;;;;;;;;;5012002;28;20080;-62
2023/10/13 14:18:49;;;;;;;6.35;2.30;;;;;;;;;;5017733;28;20250;-62
2023/10/13 14:21:22;;;;;;;4.60;2.45;;;;;;;;;;5016230;28;20068;-62
2023/10/13 14:23:49;;;;;;;7.75;2.50;;;;;;;;;;5018776;28;20067;-61
2023/10/13 14:26:20;;;;;;;6.90;2.38;;;;;;;;;;5050290;28;20062;-62
2023/10/13 14:28:51;;;;;;;6.65;2.80;;;;;;;;;;5033686;28;20030;-68
2023/10/13 14:31:18;;;;;;;8.20;2.58;;;;;;;;;;5013709;28;20121;-68
2023/10/13 14:33:46;;;;;;;7.93;2.72;;;;;;;;;;5013914;28;20302;-69
2023/10/13 14:36:12;;;;;;;9.45;2.78;;;;;;;;;;5016445;28;20128;-69
2023/10/13 14:38:40;;;;;;;7.63;2.38;;;;;;;;;;5016554;28;20049;-68
2023/10/13 14:41:06;;;;;;;10.35;2.70;;;;;;;;;;5017881;28;20497;-68
2023/10/13 14:43:33;;;;;;;5.72;2.92;;;;;;;;;;5017847;28;20045;-68
2023/10/13 14:46:00;;;;;;;8.70;2.28;;;;;;;;;;4982373;28;20056;-67
2023/10/13 14:48:27;;;;;;;6.80;3.60;;;;;;;;;;5012304;28;20035;-68
2023/10/13 14:50:53;;;;;;;7.68;2.63;;;;;;;;;;5017999;28;20541;-68
2023/10/13 14:53:21;;;;;;;9.13;2.70;;;;;;;;;;5013980;28;20025;-69
2023/10/13 14:55:48;;;;;;;12.80;2.58;;;;;;;;;;5016200;28;20052;-67
2023/10/13 14:58:16;;;;;;;8.75;2.60;;;;;;;;;;5023758;28;20083;-68
2023/10/13 15:00:45;;;;;;;9.02;2.50;;;;;;;;;;5000303;28;20103;-67
2023/10/13 15:03:12;;;;;;;9.02;2.55;;;;;;;;;;5012982;28;20033;-69
2023/10/13 15:05:44;;;;;;;10.57;3.00;;;;;;;;;;5014817;28;20037;-68
2023/10/13 15:08:10;;;;;;;5.95;2.10;;;;;;;;;;5012193;28;20034;-65
2023/10/13 15:10:36;;;;;;;8.55;2.70;;;;;;;;;;5010596;28;20030;-65
2023/10/13 15:13:05;;;;;;;5.72;2.67;;;;;;;;;;5019607;28;20505;-65
2023/10/13 15:15:32;;;;;;;5.82;2.40;;;;;;;;;;5009397;28;20557;-66
2023/10/13 15:17:59;;;;;;;6.78;3.10;;;;;;;;;;5020446;28;20029;-64
2023/10/13 15:20:25;;;;;;;6.65;2.28;;;;;;;;;;5019587;28;20145;-65
2023/10/13 15:22:59;;;;;;;9.05;2.50;;;;;;;;;;5017149;28;20067;-66
2023/10/13 15:25:28;;;;;;;6.03;2.55;;;;;;;;;;5018873;28;20121;-65
2023/10/13 15:28:02;;;;;;;8.52;2.33;;;;;;;;;;5017861;28;20060;-65
2023/10/13 15:30:44;;;;;;;8.88;3.08;;;;;;;;;;5016959;28;20061;-67
2023/10/13 15:33:13;;;;;;;6.68;2.60;;;;;;;;;;5021739;28;20440;-67
2023/10/13 15:35:42;;;;;;;5.63;3.10;;;;;;;;;;5035352;28;20037;-68
2023/10/13 15:38:10;;;;;;;7.25;3.33;;;;;;;;;;5011907;28;20494;-69
2023/10/13 15:40:42;;;;;;;4.20;2.33;;;;;;;;;;5016959;28;20056;-69
2023/10/13 15:43:08;;;;;;;9.32;3.22;;;;;;;;;;5020075;28;20030;-69
2023/10/13 15:45:42;;;;;;;7.38;3.08;;;;;;;;;;5014844;28;20421;-69
2023/10/13 15:48:10;;;;;;;7.85;3.05;;;;;;;;;;5039297;28;20040;-68
2023/10/13 15:50:39;;;;;;;5.75;2.80;;;;;;;;;;5017414;28;20033;-70
2023/10/13 15:53:15;;;;;;;12.57;4.43;;;;;;;;;;5013027;28;20040;-70
2023/10/13 15:55:45;;;;;;;12.82;5.50;;;;;;;;;;5019279;28;20030;-69
2023/10/13 15:58:11;;;;;;;8.10;3.28;;;;;;;;;;5015952;28;20123;-71
2023/10/13 16:00:37;;;;;;;11.13;6.05;;;;;;;;;;5021624;28;20048;-69
2023/10/13 16:03:10;;;;;;;3.78;2.22;;;;;;;;;;5019030;28;20032;-68
2023/10/13 16:05:38;;;;;;;5.30;2.65;;;;;;;;;;5021756;28;20032;-68
2023/10/13 16:08:06;;;;;;;5.88;2.45;;;;;;;;;;5018466;28;20025;-68
2023/10/13 16:10:33;;;;;;;7.43;3.17;;;;;;;;;;5022879;28;20033;-68
2023/10/13 16:12:59;;;;;;;6.88;3.00;;;;;;;;;;5023211;28;20014;-69
2023/10/13 16:15:26;;;;;;;7.82;3.38;;;;;;;;;;5023896;28;20418;-68
2023/10/13 16:17:53;;;;;;;7.45;2.63;;;;;;;;;;5054948;28;20511;-69
2023/10/13 16:20:20;;;;;;;6.30;2.42;;;;;;;;;;5023538;28;20041;-69
2023/10/13 16:22:47;;;;;;;6.78;2.75;;;;;;;;;;5023531;28;20036;-69
2023/10/13 16:25:14;;;;;;;7.07;2.58;;;;;;;;;;5022804;28;20025;-68
2023/10/13 16:27:45;;;;;;;6.03;2.60;;;;;;;;;;5025469;28;20029;-68
2023/10/13 16:30:15;;;;;;;6.28;2.33;;;;;;;;;;5019524;28;20036;-70
2023/10/13 16:32:45;;;;;;;8.10;3.05;;;;;;;;;;5023790;28;20034;-69
2023/10/13 16:35:13;;;;;;;4.85;2.42;;;;;;;;;;5019917;28;20396;-69
2023/10/13 16:37:39;;;;;;;4.40;2.35;;;;;;;;;;5021864;28;20029;-69
2023/10/13 16:40:07;;;;;;;8.85;3.65;;;;;;;;;;5021496;28;20029;-69
2023/10/13 16:42:34;;;;;;;5.03;2.30;;;;;;;;;;5019535;28;20030;-68
2023/10/13 16:45:14;;;;;;;7.55;2.95;;;;;;;;;;5022495;28;20045;-69
2023/10/13 16:47:43;;;;;;;4.80;2.30;;;;;;;;;;5023116;28;20037;-69
2023/10/13 16:50:20;;;;;;;6.47;2.40;;;;;;;;;;5020501;28;20025;-68
2023/10/13 16:52:47;;;;;;;4.97;2.78;;;;;;;;;;5019782;28;20420;-72
2023/10/13 16:55:20;;;;;;;4.22;2.05;;;;;;;;;;5018751;28;20087;-68
2023/10/13 16:57:53;;;;;;;7.07;2.92;;;;;;;;;;5021268;28;20060;-68
2023/10/13 17:00:25;;;;;;;5.65;2.70;;;;;;;;;;5020594;28;20013;-68
2023/10/13 17:02:52;;;;;;;4.80;1.95;;;;;;;;;;5020456;28;20032;-68
2023/10/13 17:05:19;;;;;;;3.97;1.77;;;;;;;;;;5019482;28;20099;-69
2023/10/13 17:07:48;;;;;;;6.18;2.67;;;;;;;;;;5020447;28;20025;-68
2023/10/13 17:10:15;;;;;;;3.45;2.05;;;;;;;;;;5017375;28;20850;-68
2023/10/13 17:12:42;;;;;;;7.07;2.40;;;;;;;;;;5012723;28;20025;-68
2023/10/13 17:15:19;;;;;;;5.70;3.42;;;;;;;;;;5022706;28;20036;-67
2023/10/13 17:17:46;;;;;;;5.13;2.85;;;;;;;;;;5024246;28;20393;-68
2023/10/13 17:20:12;;;;;;;7.88;3.30;;;;;;;;;;5026292;28;20021;-67
2023/10/13 17:22:40;;;;;;;9.80;4.57;;;;;;;;;;5021783;28;20026;-67
2023/10/13 17:25:07;;;;;;;17.70;8.40;;;;;;;;;;5023618;28;20028;-69
2023/10/13 17:27:33;;;;;;;16.85;6.72;;;;;;;;;;5027256;28;20033;-69
2023/10/13 17:29:59;;;;;;;33.67;13.20;;;;;;;;;;5017628;28;20029;-69
2023/10/13 17:32:25;;;;;;;9.40;5.10;;;;;;;;;;5022450;28;20124;-68
2023/10/13 17:34:52;;;;;;;8.13;4.32;;;;;;;;;;5022274;28;20041;-68
2023/10/13 17:37:18;;;;;;;8.52;4.03;;;;;;;;;;5018304;28;20041;-68
2023/10/13 17:39:49;;;;;;;6.93;4.60;;;;;;;;;;5019745;28;20060;-68
2023/10/13 17:42:15;;;;;;;9.95;4.32;;;;;;;;;;5022831;28;20033;-68
2023/10/13 17:44:41;;;;;;;7.18;3.45;;;;;;;;;;5020249;28;20038;-67
2023/10/13 17:47:10;;;;;;;15.65;6.70;;;;;;;;;;5019549;28;20737;-68
2023/10/13 17:49:39;;;;;;;10.43;5.55;;;;;;;;;;5023727;28;20022;-68
2023/10/13 17:52:07;;;;;;;16.00;5.78;;;;;;;;;;5019997;28;20021;-67
2023/10/13 17:54:33;;;;;;;21.70;7.80;;;;;;;;;;5017618;28;20041;-67
2023/10/13 17:57:00;;;;;;;14.15;5.82;;;;;;;;;;5021842;28;20029;-68
2023/10/13 17:59:26;;;;;;;13.55;5.65;;;;;;;;;;5021524;28;20034;-67
2023/10/13 18:01:53;;;;;;;14.65;5.97;;;;;;;;;;5019417;28;20482;-67
2023/10/13 18:04:19;;;;;;;10.65;4.28;;;;;;;;;;5017548;28;20040;-68
2023/10/13 18:06:46;;;;;;;10.98;4.88;;;;;;;;;;5018009;28;20029;-68
2023/10/13 18:09:13;;;;;;;7.80;3.80;;;;;;;;;;5017270;28;20052;-68
2023/10/13 18:11:42;;;;;;;8.18;4.47;;;;;;;;;;5022102;28;20037;-68
2023/10/13 18:14:11;;;;;;;7.47;3.60;;;;;;;;;;5018512;28;20164;-68
2023/10/13 18:16:37;;;;;;;6.82;3.38;;;;;;;;;;5016324;28;20052;-67
2023/10/13 18:19:07;;;;;;;7.60;2.75;;;;;;;;;;5016706;28;20456;-67
2023/10/13 18:21:35;;;;;;;9.93;4.90;;;;;;;;;;5013578;28;20457;-67
2023/10/13 18:24:03;;;;;;;9.90;3.95;;;;;;;;;;5021384;28;20500;-68
2023/10/13 18:26:29;;;;;;;8.85;3.40;;;;;;;;;;5020767;28;20041;-68
2023/10/13 18:28:58;;;;;;;7.85;3.80;;;;;;;;;;5017842;28;20136;-68
2023/10/13 18:31:24;;;;;;;11.23;4.65;;;;;;;;;;5015009;28;20091;-68
2023/10/13 18:33:57;;;;;;;8.05;3.42;;;;;;;;;;5016826;28;20043;-67
2023/10/13 18:36:27;;;;;;;6.72;3.97;;;;;;;;;;5020876;28;20080;-68